Saint Rocks, Vermont
Current Conditions -  °F | °C
As of 11:35 AM on Thursday 29 Jan 2015 (Local Time) from KFSO Reporting Station
Clear Clear  
Wind Chill: 14°   Ceiling: Unl
Heat Index: 21°   Visibility: 7mi
Dew Point:   Wind: 5mph
Humidity: 45%   Direction: 150°SSE
Pressure: 30.17"   Gusts: NA
Location:  44.8776°N, 72.9201°W
Report Text: KFSO 291635Z AUTO 15004KT 7SM CLR M06/M17 A3017 RMK AO2 T10631166
Loading
Personal Weather Stations






























Interactive Weather Map New forecast layout! Learn more

10-Day Weather Forecast

Advertisements
Track Severe Weather on mobile